sensor_id;sensor_type;location;lat;lon;timestamp;P1;durP1;ratioP1;P2;durP2;ratioP2
63699;SDS011;49845;47.130;142.766;2023-04-25T00:01:57;4.07;;;1.70;;
63699;SDS011;49845;47.130;142.766;2023-04-25T00:04:27;4.10;;;1.90;;
63699;SDS011;49845;47.130;142.766;2023-04-25T00:07:01;5.18;;;2.00;;
63699;SDS011;49845;47.130;142.766;2023-04-25T00:09:34;4.97;;;1.85;;
63699;SDS011;49845;47.130;142.766;2023-04-25T00:12:05;3.35;;;1.70;;
63699;SDS011;49845;47.130;142.766;2023-04-25T00:14:37;5.70;;;1.63;;
63699;SDS011;49845;47.130;142.766;2023-04-25T00:17:07;5.93;;;1.60;;
63699;SDS011;49845;47.130;142.766;2023-04-25T00:19:38;4.15;;;1.58;;
63699;SDS011;49845;47.130;142.766;2023-04-25T00:22:09;5.30;;;2.00;;
63699;SDS011;49845;47.130;142.766;2023-04-25T00:24:40;21.83;;;1.98;;
63699;SDS011;49845;47.130;142.766;2023-04-25T00:27:10;6.57;;;1.70;;
63699;SDS011;49845;47.130;142.766;2023-04-25T00:29:42;3.28;;;1.40;;
63699;SDS011;49845;47.130;142.766;2023-04-25T00:32:13;4.32;;;1.30;;
63699;SDS011;49845;47.130;142.766;2023-04-25T00:34:43;5.72;;;1.67;;
63699;SDS011;49845;47.130;142.766;2023-04-25T00:37:14;4.70;;;2.30;;
63699;SDS011;49845;47.130;142.766;2023-04-25T00:39:45;6.32;;;1.67;;
63699;SDS011;49845;47.130;142.766;2023-04-25T00:42:16;5.03;;;1.40;;
63699;SDS011;49845;47.130;142.766;2023-04-25T00:44:48;8.98;;;1.98;;
63699;SDS011;49845;47.130;142.766;2023-04-25T00:47:19;6.78;;;2.30;;
63699;SDS011;49845;47.130;142.766;2023-04-25T00:49:50;3.80;;;1.63;;
63699;SDS011;49845;47.130;142.766;2023-04-25T00:52:20;2.22;;;1.50;;
63699;SDS011;49845;47.130;142.766;2023-04-25T00:54:51;9.77;;;1.50;;
63699;SDS011;49845;47.130;142.766;2023-04-25T00:57:21;9.68;;;1.67;;
63699;SDS011;49845;47.130;142.766;2023-04-25T00:59:53;3.97;;;1.70;;
63699;SDS011;49845;47.130;142.766;2023-04-25T01:02:24;6.03;;;2.05;;
63699;SDS011;49845;47.130;142.766;2023-04-25T01:04:56;5.82;;;1.95;;
63699;SDS011;49845;47.130;142.766;2023-04-25T01:07:26;4.78;;;2.22;;
63699;SDS011;49845;47.130;142.766;2023-04-25T01:09:57;9.05;;;1.80;;
63699;SDS011;49845;47.130;142.766;2023-04-25T01:12:28;10.20;;;1.65;;
63699;SDS011;49845;47.130;142.766;2023-04-25T01:15:00;3.55;;;1.70;;
63699;SDS011;49845;47.130;142.766;2023-04-25T01:17:31;4.13;;;1.50;;
63699;SDS011;49845;47.130;142.766;2023-04-25T01:20:03;2.95;;;1.42;;
63699;SDS011;49845;47.130;142.766;2023-04-25T01:22:38;4.43;;;1.80;;
63699;SDS011;49845;47.130;142.766;2023-04-25T01:25:08;6.05;;;2.00;;
63699;SDS011;49845;47.130;142.766;2023-04-25T01:27:39;7.93;;;1.40;;
63699;SDS011;49845;47.130;142.766;2023-04-25T01:30:10;4.60;;;1.70;;
63699;SDS011;49845;47.130;142.766;2023-04-25T01:32:41;9.20;;;2.33;;
63699;SDS011;49845;47.130;142.766;2023-04-25T01:35:12;13.10;;;1.92;;
63699;SDS011;49845;47.130;142.766;2023-04-25T01:37:44;6.97;;;3.10;;
63699;SDS011;49845;47.130;142.766;2023-04-25T01:40:14;9.60;;;2.10;;
63699;SDS011;49845;47.130;142.766;2023-04-25T01:42:46;8.27;;;3.40;;
63699;SDS011;49845;47.130;142.766;2023-04-25T01:45:17;5.90;;;1.80;;
63699;SDS011;49845;47.130;142.766;2023-04-25T01:47:47;10.75;;;1.58;;
63699;SDS011;49845;47.130;142.766;2023-04-25T01:50:18;6.35;;;1.52;;
63699;SDS011;49845;47.130;142.766;2023-04-25T01:52:50;2.67;;;1.45;;
63699;SDS011;49845;47.130;142.766;2023-04-25T01:55:22;10.25;;;1.73;;
63699;SDS011;49845;47.130;142.766;2023-04-25T01:57:52;4.10;;;1.70;;
63699;SDS011;49845;47.130;142.766;2023-04-25T02:00:23;4.00;;;1.30;;
63699;SDS011;49845;47.130;142.766;2023-04-25T02:02:53;8.63;;;1.52;;
63699;SDS011;49845;47.130;142.766;2023-04-25T02:05:28;13.63;;;2.00;;
63699;SDS011;49845;47.130;142.766;2023-04-25T02:08:05;11.05;;;1.63;;
63699;SDS011;49845;47.130;142.766;2023-04-25T02:10:36;11.35;;;1.98;;
63699;SDS011;49845;47.130;142.766;2023-04-25T02:13:06;7.32;;;1.30;;
63699;SDS011;49845;47.130;142.766;2023-04-25T02:15:37;6.15;;;1.27;;
63699;SDS011;49845;47.130;142.766;2023-04-25T02:18:07;5.38;;;1.50;;
63699;SDS011;49845;47.130;142.766;2023-04-25T02:20:38;8.88;;;2.05;;
63699;SDS011;49845;47.130;142.766;2023-04-25T02:23:10;5.82;;;1.63;;
63699;SDS011;49845;47.130;142.766;2023-04-25T02:25:43;8.77;;;1.60;;
63699;SDS011;49845;47.130;142.766;2023-04-25T02:28:13;3.67;;;1.60;;
63699;SDS011;49845;47.130;142.766;2023-04-25T02:30:43;5.20;;;1.20;;
63699;SDS011;49845;47.130;142.766;2023-04-25T02:33:14;7.40;;;1.40;;
63699;SDS011;49845;47.130;142.766;2023-04-25T02:35:45;7.45;;;1.75;;
63699;SDS011;49845;47.130;142.766;2023-04-25T02:38:17;4.82;;;1.40;;
63699;SDS011;49845;47.130;142.766;2023-04-25T02:40:47;5.28;;;2.10;;
63699;SDS011;49845;47.130;142.766;2023-04-25T02:43:18;2.95;;;1.40;;
63699;SDS011;49845;47.130;142.766;2023-04-25T02:45:49;2.80;;;1.25;;
63699;SDS011;49845;47.130;142.766;2023-04-25T02:48:19;4.35;;;1.25;;
63699;SDS011;49845;47.130;142.766;2023-04-25T02:50:50;4.47;;;1.33;;
63699;SDS011;49845;47.130;142.766;2023-04-25T02:53:22;10.38;;;1.83;;
63699;SDS011;49845;47.130;142.766;2023-04-25T02:55:53;5.22;;;1.58;;
63699;SDS011;49845;47.130;142.766;2023-04-25T02:58:25;4.63;;;1.60;;
63699;SDS011;49845;47.130;142.766;2023-04-25T03:00:56;47.47;;;3.15;;
63699;SDS011;49845;47.130;142.766;2023-04-25T03:03:26;9.25;;;1.40;;
63699;SDS011;49845;47.130;142.766;2023-04-25T03:05:57;11.10;;;1.40;;
63699;SDS011;49845;47.130;142.766;2023-04-25T03:08:29;4.63;;;1.70;;
63699;SDS011;49845;47.130;142.766;2023-04-25T03:11:01;5.60;;;1.15;;
63699;SDS011;49845;47.130;142.766;2023-04-25T03:13:32;11.35;;;1.55;;
63699;SDS011;49845;47.130;142.766;2023-04-25T03:16:02;4.57;;;1.63;;
63699;SDS011;49845;47.130;142.766;2023-04-25T03:18:33;3.72;;;1.20;;
63699;SDS011;49845;47.130;142.766;2023-04-25T03:21:04;7.05;;;1.40;;
63699;SDS011;49845;47.130;142.766;2023-04-25T03:23:36;4.22;;;1.42;;
63699;SDS011;49845;47.130;142.766;2023-04-25T03:26:06;3.97;;;1.63;;
63699;SDS011;49845;47.130;142.766;2023-04-25T03:28:37;12.00;;;1.70;;
63699;SDS011;49845;47.130;142.766;2023-04-25T03:31:08;4.60;;;1.80;;
63699;SDS011;49845;47.130;142.766;2023-04-25T03:33:38;4.07;;;1.50;;
63699;SDS011;49845;47.130;142.766;2023-04-25T03:36:08;13.05;;;1.70;;
63699;SDS011;49845;47.130;142.766;2023-04-25T03:38:44;4.78;;;1.60;;
63699;SDS011;49845;47.130;142.766;2023-04-25T03:41:15;6.97;;;1.45;;
63699;SDS011;49845;47.130;142.766;2023-04-25T03:43:46;2.80;;;1.30;;
63699;SDS011;49845;47.130;142.766;2023-04-25T03:46:17;2.67;;;1.35;;
63699;SDS011;49845;47.130;142.766;2023-04-25T03:48:48;25.30;;;2.92;;
63699;SDS011;49845;47.130;142.766;2023-04-25T03:51:18;8.77;;;1.50;;
63699;SDS011;49845;47.130;142.766;2023-04-25T03:53:51;7.53;;;1.52;;
63699;SDS011;49845;47.130;142.766;2023-04-25T03:56:21;5.63;;;1.30;;
63699;SDS011;49845;47.130;142.766;2023-04-25T03:58:52;6.95;;;1.50;;
63699;SDS011;49845;47.130;142.766;2023-04-25T04:01:22;6.03;;;1.50;;
63699;SDS011;49845;47.130;142.766;2023-04-25T04:03:56;10.10;;;1.50;;
63699;SDS011;49845;47.130;142.766;2023-04-25T04:06:29;4.70;;;1.30;;
63699;SDS011;49845;47.130;142.766;2023-04-25T04:09:02;8.90;;;1.45;;
63699;SDS011;49845;47.130;142.766;2023-04-25T04:11:33;9.60;;;1.33;;
63699;SDS011;49845;47.130;142.766;2023-04-25T04:14:06;6.75;;;1.30;;
63699;SDS011;49845;47.130;142.766;2023-04-25T04:16:37;2.85;;;1.30;;
63699;SDS011;49845;47.130;142.766;2023-04-25T04:19:07;4.78;;;1.40;;
63699;SDS011;49845;47.130;142.766;2023-04-25T04:21:38;6.13;;;1.30;;
63699;SDS011;49845;47.130;142.766;2023-04-25T04:24:10;4.70;;;1.25;;
63699;SDS011;49845;47.130;142.766;2023-04-25T04:26:41;4.65;;;1.58;;
63699;SDS011;49845;47.130;142.766;2023-04-25T04:29:12;4.35;;;1.40;;
63699;SDS011;49845;47.130;142.766;2023-04-25T04:31:48;12.52;;;1.55;;
63699;SDS011;49845;47.130;142.766;2023-04-25T04:34:20;2.95;;;1.33;;
63699;SDS011;49845;47.130;142.766;2023-04-25T04:36:52;12.85;;;1.45;;
63699;SDS011;49845;47.130;142.766;2023-04-25T04:39:24;6.70;;;1.33;;
63699;SDS011;49845;47.130;142.766;2023-04-25T04:41:58;3.72;;;1.25;;
63699;SDS011;49845;47.130;142.766;2023-04-25T04:44:29;5.35;;;1.50;;
63699;SDS011;49845;47.130;142.766;2023-04-25T04:47:00;3.42;;;1.50;;
63699;SDS011;49845;47.130;142.766;2023-04-25T04:49:31;9.35;;;1.40;;
63699;SDS011;49845;47.130;142.766;2023-04-25T04:52:01;4.25;;;1.48;;
63699;SDS011;49845;47.130;142.766;2023-04-25T04:54:34;11.55;;;2.25;;
63699;SDS011;49845;47.130;142.766;2023-04-25T04:57:04;4.75;;;1.20;;
63699;SDS011;49845;47.130;142.766;2023-04-25T04:59:35;1.92;;;1.30;;
63699;SDS011;49845;47.130;142.766;2023-04-25T05:02:05;5.13;;;1.70;;
63699;SDS011;49845;47.130;142.766;2023-04-25T05:04:36;2.10;;;1.48;;
63699;SDS011;49845;47.130;142.766;2023-04-25T05:07:07;3.80;;;1.90;;
63699;SDS011;49845;47.130;142.766;2023-04-25T05:09:39;4.07;;;1.52;;
63699;SDS011;49845;47.130;142.766;2023-04-25T05:12:10;3.30;;;2.08;;
63699;SDS011;49845;47.130;142.766;2023-04-25T05:14:40;2.47;;;1.60;;
63699;SDS011;49845;47.130;142.766;2023-04-25T05:17:11;5.45;;;1.42;;
63699;SDS011;49845;47.130;142.766;2023-04-25T05:19:41;15.23;;;2.30;;
63699;SDS011;49845;47.130;142.766;2023-04-25T05:22:12;5.55;;;1.70;;
63699;SDS011;49845;47.130;142.766;2023-04-25T05:24:44;5.15;;;1.58;;
63699;SDS011;49845;47.130;142.766;2023-04-25T05:27:16;4.72;;;1.40;;
63699;SDS011;49845;47.130;142.766;2023-04-25T05:29:48;4.03;;;1.60;;
63699;SDS011;49845;47.130;142.766;2023-04-25T05:32:19;4.93;;;1.23;;
63699;SDS011;49845;47.130;142.766;2023-04-25T05:34:49;4.65;;;1.85;;
63699;SDS011;49845;47.130;142.766;2023-04-25T05:37:20;6.57;;;1.70;;
63699;SDS011;49845;47.130;142.766;2023-04-25T05:39:52;6.40;;;1.60;;
63699;SDS011;49845;47.130;142.766;2023-04-25T05:42:23;7.05;;;1.30;;
63699;SDS011;49845;47.130;142.766;2023-04-25T05:44:53;3.45;;;1.40;;
63699;SDS011;49845;47.130;142.766;2023-04-25T05:47:24;6.20;;;1.75;;
63699;SDS011;49845;47.130;142.766;2023-04-25T05:49:54;9.38;;;1.50;;
63699;SDS011;49845;47.130;142.766;2023-04-25T05:52:25;7.47;;;1.42;;
63699;SDS011;49845;47.130;142.766;2023-04-25T05:54:57;6.85;;;1.50;;
63699;SDS011;49845;47.130;142.766;2023-04-25T05:57:27;6.07;;;1.60;;
63699;SDS011;49845;47.130;142.766;2023-04-25T05:59:58;10.98;;;1.70;;
63699;SDS011;49845;47.130;142.766;2023-04-25T06:02:28;5.88;;;1.52;;
63699;SDS011;49845;47.130;142.766;2023-04-25T06:04:59;5.55;;;1.27;;
63699;SDS011;49845;47.130;142.766;2023-04-25T06:07:31;2.40;;;1.17;;
63699;SDS011;49845;47.130;142.766;2023-04-25T06:10:03;3.33;;;1.67;;
63699;SDS011;49845;47.130;142.766;2023-04-25T06:12:35;4.47;;;1.67;;
63699;SDS011;49845;47.130;142.766;2023-04-25T06:15:06;7.47;;;1.60;;
63699;SDS011;49845;47.130;142.766;2023-04-25T06:17:53;2.25;;;1.38;;
63699;SDS011;49845;47.130;142.766;2023-04-25T06:20:24;3.38;;;1.10;;
63699;SDS011;49845;47.130;142.766;2023-04-25T06:22:54;2.10;;;1.40;;
63699;SDS011;49845;47.130;142.766;2023-04-25T06:25:26;2.83;;;1.60;;
63699;SDS011;49845;47.130;142.766;2023-04-25T06:27:57;13.75;;;2.20;;
63699;SDS011;49845;47.130;142.766;2023-04-25T06:30:27;4.60;;;1.60;;
63699;SDS011;49845;47.130;142.766;2023-04-25T06:32:58;5.18;;;1.80;;
63699;SDS011;49845;47.130;142.766;2023-04-25T06:35:28;4.80;;;1.83;;
63699;SDS011;49845;47.130;142.766;2023-04-25T06:37:59;8.15;;;2.05;;
63699;SDS011;49845;47.130;142.766;2023-04-25T06:40:31;4.75;;;2.13;;
63699;SDS011;49845;47.130;142.766;2023-04-25T06:43:01;6.70;;;1.70;;
63699;SDS011;49845;47.130;142.766;2023-04-25T06:45:32;9.68;;;1.58;;
63699;SDS011;49845;47.130;142.766;2023-04-25T06:48:03;37.63;;;4.10;;
63699;SDS011;49845;47.130;142.766;2023-04-25T06:50:34;73.35;;;6.70;;
63699;SDS011;49845;47.130;142.766;2023-04-25T06:53:04;7.85;;;1.90;;
63699;SDS011;49845;47.130;142.766;2023-04-25T06:55:38;8.98;;;1.73;;
63699;SDS011;49845;47.130;142.766;2023-04-25T06:58:08;20.45;;;2.47;;
63699;SDS011;49845;47.130;142.766;2023-04-25T07:00:39;2.83;;;1.35;;
63699;SDS011;49845;47.130;142.766;2023-04-25T07:03:09;9.55;;;1.85;;
63699;SDS011;49845;47.130;142.766;2023-04-25T07:05:40;6.35;;;1.80;;
63699;SDS011;49845;47.130;142.766;2023-04-25T07:08:11;10.80;;;2.63;;
63699;SDS011;49845;47.130;142.766;2023-04-25T07:10:43;3.72;;;1.20;;
63699;SDS011;49845;47.130;142.766;2023-04-25T07:13:15;3.10;;;1.50;;
63699;SDS011;49845;47.130;142.766;2023-04-25T07:15:46;6.88;;;1.70;;
63699;SDS011;49845;47.130;142.766;2023-04-25T07:18:16;5.60;;;1.90;;
63699;SDS011;49845;47.130;142.766;2023-04-25T07:20:47;3.55;;;1.60;;
63699;SDS011;49845;47.130;142.766;2023-04-25T07:23:17;3.72;;;1.42;;
63699;SDS011;49845;47.130;142.766;2023-04-25T07:25:49;2.58;;;1.52;;
63699;SDS011;49845;47.130;142.766;2023-04-25T07:28:21;3.00;;;1.30;;
63699;SDS011;49845;47.130;142.766;2023-04-25T07:30:52;4.90;;;1.83;;
63699;SDS011;49845;47.130;142.766;2023-04-25T07:33:22;3.00;;;1.60;;
63699;SDS011;49845;47.130;142.766;2023-04-25T07:35:52;3.45;;;1.52;;
63699;SDS011;49845;47.130;142.766;2023-04-25T07:38:23;10.10;;;3.47;;
63699;SDS011;49845;47.130;142.766;2023-04-25T07:40:55;10.38;;;1.90;;
63699;SDS011;49845;47.130;142.766;2023-04-25T07:43:26;7.10;;;2.38;;
63699;SDS011;49845;47.130;142.766;2023-04-25T07:45:56;3.97;;;1.98;;
63699;SDS011;49845;47.130;142.766;2023-04-25T07:48:27;3.88;;;1.60;;
63699;SDS011;49845;47.130;142.766;2023-04-25T07:50:57;4.15;;;1.50;;
63699;SDS011;49845;47.130;142.766;2023-04-25T07:53:28;2.97;;;1.63;;
63699;SDS011;49845;47.130;142.766;2023-04-25T07:56:01;8.77;;;2.20;;
63699;SDS011;49845;47.130;142.766;2023-04-25T07:58:32;3.88;;;1.73;;
63699;SDS011;49845;47.130;142.766;2023-04-25T08:01:02;8.15;;;1.80;;
63699;SDS011;49845;47.130;142.766;2023-04-25T08:03:33;7.68;;;1.95;;
63699;SDS011;49845;47.130;142.766;2023-04-25T08:06:04;7.93;;;1.65;;
63699;SDS011;49845;47.130;142.766;2023-04-25T08:08:36;5.25;;;2.03;;
63699;SDS011;49845;47.130;142.766;2023-04-25T08:11:08;5.18;;;1.95;;
63699;SDS011;49845;47.130;142.766;2023-04-25T08:13:39;6.93;;;1.88;;
63699;SDS011;49845;47.130;142.766;2023-04-25T08:16:09;5.50;;;2.10;;
63699;SDS011;49845;47.130;142.766;2023-04-25T08:18:40;18.63;;;2.92;;
63699;SDS011;49845;47.130;142.766;2023-04-25T08:21:11;9.10;;;2.17;;
63699;SDS011;49845;47.130;142.766;2023-04-25T08:23:43;7.40;;;2.08;;
63699;SDS011;49845;47.130;142.766;2023-04-25T08:26:15;10.25;;;2.88;;
63699;SDS011;49845;47.130;142.766;2023-04-25T08:28:45;5.05;;;2.10;;
63699;SDS011;49845;47.130;142.766;2023-04-25T08:31:16;10.45;;;2.00;;
63699;SDS011;49845;47.130;142.766;2023-04-25T08:33:47;3.85;;;1.92;;
63699;SDS011;49845;47.130;142.766;2023-04-25T08:36:19;4.38;;;2.00;;
63699;SDS011;49845;47.130;142.766;2023-04-25T08:39:04;12.18;;;2.28;;
63699;SDS011;49845;47.130;142.766;2023-04-25T08:41:38;13.00;;;4.93;;
63699;SDS011;49845;47.130;142.766;2023-04-25T08:44:09;12.68;;;4.47;;
63699;SDS011;49845;47.130;142.766;2023-04-25T08:46:41;11.27;;;5.72;;
63699;SDS011;49845;47.130;142.766;2023-04-25T08:49:13;17.30;;;3.97;;
63699;SDS011;49845;47.130;142.766;2023-04-25T08:51:44;15.77;;;2.88;;
63699;SDS011;49845;47.130;142.766;2023-04-25T08:54:17;13.93;;;2.97;;
63699;SDS011;49845;47.130;142.766;2023-04-25T08:57:03;12.70;;;2.53;;
63699;SDS011;49845;47.130;142.766;2023-04-25T08:59:36;7.97;;;2.30;;
63699;SDS011;49845;47.130;142.766;2023-04-25T09:02:07;12.15;;;3.00;;
63699;SDS011;49845;47.130;142.766;2023-04-25T09:04:39;19.80;;;3.25;;
63699;SDS011;49845;47.130;142.766;2023-04-25T09:07:11;19.05;;;4.40;;
63699;SDS011;49845;47.130;142.766;2023-04-25T09:09:48;22.42;;;4.05;;
63699;SDS011;49845;47.130;142.766;2023-04-25T09:12:21;24.83;;;2.85;;
63699;SDS011;49845;47.130;142.766;2023-04-25T09:15:05;16.13;;;2.92;;
63699;SDS011;49845;47.130;142.766;2023-04-25T09:17:37;11.20;;;2.75;;
63699;SDS011;49845;47.130;142.766;2023-04-25T09:20:12;17.88;;;3.17;;
63699;SDS011;49845;47.130;142.766;2023-04-25T09:22:43;10.20;;;2.67;;
63699;SDS011;49845;47.130;142.766;2023-04-25T09:25:16;12.45;;;3.17;;
63699;SDS011;49845;47.130;142.766;2023-04-25T09:27:53;12.85;;;3.25;;
63699;SDS011;49845;47.130;142.766;2023-04-25T09:30:28;11.88;;;4.97;;
63699;SDS011;49845;47.130;142.766;2023-04-25T09:33:04;12.50;;;6.15;;
63699;SDS011;49845;47.130;142.766;2023-04-25T09:35:36;21.00;;;7.50;;
63699;SDS011;49845;47.130;142.766;2023-04-25T09:38:08;25.52;;;8.25;;
63699;SDS011;49845;47.130;142.766;2023-04-25T09:40:40;33.75;;;5.40;;
63699;SDS011;49845;47.130;142.766;2023-04-25T09:43:20;13.77;;;3.67;;
63699;SDS011;49845;47.130;142.766;2023-04-25T09:45:53;8.70;;;4.35;;
63699;SDS011;49845;47.130;142.766;2023-04-25T09:48:27;13.50;;;4.80;;
63699;SDS011;49845;47.130;142.766;2023-04-25T09:51:06;10.77;;;5.13;;
63699;SDS011;49845;47.130;142.766;2023-04-25T09:56:11;7.55;;;4.13;;
63699;SDS011;49845;47.130;142.766;2023-04-25T09:58:45;10.52;;;3.90;;
63699;SDS011;49845;47.130;142.766;2023-04-25T10:01:20;7.55;;;3.45;;
63699;SDS011;49845;47.130;142.766;2023-04-25T10:03:53;9.68;;;3.92;;
63699;SDS011;49845;47.130;142.766;2023-04-25T10:06:29;11.18;;;4.18;;
63699;SDS011;49845;47.130;142.766;2023-04-25T10:09:03;13.40;;;4.00;;
63699;SDS011;49845;47.130;142.766;2023-04-25T10:11:37;21.52;;;4.50;;
63699;SDS011;49845;47.130;142.766;2023-04-25T10:14:11;11.80;;;3.40;;
63699;SDS011;49845;47.130;142.766;2023-04-25T10:16:44;10.85;;;3.47;;
63699;SDS011;49845;47.130;142.766;2023-04-25T10:19:17;9.20;;;3.42;;
63699;SDS011;49845;47.130;142.766;2023-04-25T10:21:51;11.82;;;2.70;;
63699;SDS011;49845;47.130;142.766;2023-04-25T10:24:25;6.18;;;2.65;;
63699;SDS011;49845;47.130;142.766;2023-04-25T10:26:57;8.52;;;2.78;;
63699;SDS011;49845;47.130;142.766;2023-04-25T10:29:31;5.07;;;2.30;;
63699;SDS011;49845;47.130;142.766;2023-04-25T10:32:03;3.88;;;2.05;;
63699;SDS011;49845;47.130;142.766;2023-04-25T10:34:38;6.43;;;2.28;;
63699;SDS011;49845;47.130;142.766;2023-04-25T10:37:13;4.90;;;2.22;;
63699;SDS011;49845;47.130;142.766;2023-04-25T10:39:44;9.25;;;2.65;;
63699;SDS011;49845;47.130;142.766;2023-04-25T10:42:16;4.22;;;2.63;;
63699;SDS011;49845;47.130;142.766;2023-04-25T10:45:03;3.25;;;2.35;;
63699;SDS011;49845;47.130;142.766;2023-04-25T10:47:36;6.45;;;2.63;;
63699;SDS011;49845;47.130;142.766;2023-04-25T10:50:14;10.95;;;3.85;;
63699;SDS011;49845;47.130;142.766;2023-04-25T10:52:47;9.10;;;3.63;;
63699;SDS011;49845;47.130;142.766;2023-04-25T10:55:18;17.95;;;3.47;;
63699;SDS011;49845;47.130;142.766;2023-04-25T10:57:51;8.43;;;3.03;;
63699;SDS011;49845;47.130;142.766;2023-04-25T11:00:27;14.15;;;4.10;;
63699;SDS011;49845;47.130;142.766;2023-04-25T11:03:21;20.55;;;5.32;;
63699;SDS011;49845;47.130;142.766;2023-04-25T11:05:54;22.63;;;8.40;;
63699;SDS011;49845;47.130;142.766;2023-04-25T11:08:29;26.98;;;9.77;;
63699;SDS011;49845;47.130;142.766;2023-04-25T11:11:10;30.00;;;10.55;;
63699;SDS011;49845;47.130;142.766;2023-04-25T11:13:42;25.08;;;10.48;;
63699;SDS011;49845;47.130;142.766;2023-04-25T11:16:16;28.20;;;10.50;;
63699;SDS011;49845;47.130;142.766;2023-04-25T11:18:50;32.28;;;10.85;;
63699;SDS011;49845;47.130;142.766;2023-04-25T11:21:22;41.42;;;10.43;;
63699;SDS011;49845;47.130;142.766;2023-04-25T11:23:56;23.83;;;9.30;;
63699;SDS011;49845;47.130;142.766;2023-04-25T11:26:27;25.23;;;8.10;;
63699;SDS011;49845;47.130;142.766;2023-04-25T11:29:00;23.38;;;8.15;;
63699;SDS011;49845;47.130;142.766;2023-04-25T11:31:34;31.60;;;8.38;;
63699;SDS011;49845;47.130;142.766;2023-04-25T11:34:05;16.35;;;7.97;;
63699;SDS011;49845;47.130;142.766;2023-04-25T11:36:37;26.23;;;8.00;;
63699;SDS011;49845;47.130;142.766;2023-04-25T11:39:08;28.05;;;7.93;;
63699;SDS011;49845;47.130;142.766;2023-04-25T11:41:38;23.95;;;7.93;;
63699;SDS011;49845;47.130;142.766;2023-04-25T11:44:11;23.80;;;6.60;;
63699;SDS011;49845;47.130;142.766;2023-04-25T11:46:46;22.30;;;5.80;;
63699;SDS011;49845;47.130;142.766;2023-04-25T11:49:17;16.70;;;6.30;;
63699;SDS011;49845;47.130;142.766;2023-04-25T11:51:49;12.52;;;6.60;;
63699;SDS011;49845;47.130;142.766;2023-04-25T11:54:20;18.70;;;7.55;;
63699;SDS011;49845;47.130;142.766;2023-04-25T11:56:55;21.02;;;7.70;;
63699;SDS011;49845;47.130;142.766;2023-04-25T11:59:25;22.23;;;7.28;;
63699;SDS011;49845;47.130;142.766;2023-04-25T12:02:02;17.63;;;7.20;;
63699;SDS011;49845;47.130;142.766;2023-04-25T12:04:36;22.17;;;7.35;;
63699;SDS011;49845;47.130;142.766;2023-04-25T12:07:10;16.73;;;6.45;;
63699;SDS011;49845;47.130;142.766;2023-04-25T12:09:45;16.42;;;5.90;;
63699;SDS011;49845;47.130;142.766;2023-04-25T12:12:27;11.35;;;4.75;;
63699;SDS011;49845;47.130;142.766;2023-04-25T12:14:57;12.93;;;5.68;;
63699;SDS011;49845;47.130;142.766;2023-04-25T12:17:44;11.48;;;4.65;;
63699;SDS011;49845;47.130;142.766;2023-04-25T12:20:26;7.88;;;3.83;;
63699;SDS011;49845;47.130;142.766;2023-04-25T12:23:05;10.40;;;4.10;;
63699;SDS011;49845;47.130;142.766;2023-04-25T12:25:40;7.93;;;4.10;;
63699;SDS011;49845;47.130;142.766;2023-04-25T12:28:15;9.77;;;3.95;;
63699;SDS011;49845;47.130;142.766;2023-04-25T12:30:53;9.98;;;4.53;;
63699;SDS011;49845;47.130;142.766;2023-04-25T12:33:31;11.93;;;4.68;;
63699;SDS011;49845;47.130;142.766;2023-04-25T12:36:05;12.52;;;4.07;;
63699;SDS011;49845;47.130;142.766;2023-04-25T12:38:45;18.40;;;4.78;;
63699;SDS011;49845;47.130;142.766;2023-04-25T12:41:19;10.57;;;4.55;;
63699;SDS011;49845;47.130;142.766;2023-04-25T12:43:52;9.40;;;4.72;;
63699;SDS011;49845;47.130;142.766;2023-04-25T12:46:23;16.02;;;5.57;;
63699;SDS011;49845;47.130;142.766;2023-04-25T12:48:55;13.50;;;4.97;;
63699;SDS011;49845;47.130;142.766;2023-04-25T12:54:14;16.23;;;5.80;;
63699;SDS011;49845;47.130;142.766;2023-04-25T12:56:45;13.60;;;5.65;;
63699;SDS011;49845;47.130;142.766;2023-04-25T12:59:16;14.45;;;6.10;;
63699;SDS011;49845;47.130;142.766;2023-04-25T13:01:47;15.27;;;5.47;;
63699;SDS011;49845;47.130;142.766;2023-04-25T13:04:20;13.90;;;5.65;;
63699;SDS011;49845;47.130;142.766;2023-04-25T13:06:53;17.77;;;6.22;;
63699;SDS011;49845;47.130;142.766;2023-04-25T13:09:24;16.08;;;5.97;;
63699;SDS011;49845;47.130;142.766;2023-04-25T13:11:55;17.23;;;6.30;;
63699;SDS011;49845;47.130;142.766;2023-04-25T13:14:32;14.60;;;5.80;;
63699;SDS011;49845;47.130;142.766;2023-04-25T13:17:03;13.57;;;6.30;;
63699;SDS011;49845;47.130;142.766;2023-04-25T13:19:35;14.43;;;5.75;;
63699;SDS011;49845;47.130;142.766;2023-04-25T13:22:06;19.08;;;7.50;;
63699;SDS011;49845;47.130;142.766;2023-04-25T13:24:37;15.68;;;8.07;;
63699;SDS011;49845;47.130;142.766;2023-04-25T13:27:09;23.30;;;8.82;;
63699;SDS011;49845;47.130;142.766;2023-04-25T13:29:39;22.17;;;9.80;;
63699;SDS011;49845;47.130;142.766;2023-04-25T13:32:12;23.15;;;8.55;;
63699;SDS011;49845;47.130;142.766;2023-04-25T13:34:50;30.92;;;10.38;;
63699;SDS011;49845;47.130;142.766;2023-04-25T13:37:24;21.95;;;8.35;;
63699;SDS011;49845;47.130;142.766;2023-04-25T13:39:54;23.90;;;9.15;;
63699;SDS011;49845;47.130;142.766;2023-04-25T13:42:28;20.35;;;8.70;;
63699;SDS011;49845;47.130;142.766;2023-04-25T13:44:58;27.92;;;9.18;;
63699;SDS011;49845;47.130;142.766;2023-04-25T13:47:35;28.55;;;9.50;;
63699;SDS011;49845;47.130;142.766;2023-04-25T13:50:10;26.65;;;8.90;;
63699;SDS011;49845;47.130;142.766;2023-04-25T13:52:43;29.55;;;9.82;;
63699;SDS011;49845;47.130;142.766;2023-04-25T13:55:14;22.45;;;9.23;;
63699;SDS011;49845;47.130;142.766;2023-04-25T13:57:51;23.75;;;10.00;;
63699;SDS011;49845;47.130;142.766;2023-04-25T14:00:25;24.35;;;9.10;;
63699;SDS011;49845;47.130;142.766;2023-04-25T14:02:56;24.45;;;8.95;;
63699;SDS011;49845;47.130;142.766;2023-04-25T14:05:30;24.45;;;9.20;;
63699;SDS011;49845;47.130;142.766;2023-04-25T14:08:02;18.67;;;7.32;;
63699;SDS011;49845;47.130;142.766;2023-04-25T14:10:35;23.60;;;7.90;;
63699;SDS011;49845;47.130;142.766;2023-04-25T14:13:06;31.92;;;7.78;;
63699;SDS011;49845;47.130;142.766;2023-04-25T14:15:37;22.25;;;7.97;;
63699;SDS011;49845;47.130;142.766;2023-04-25T14:18:15;24.90;;;7.55;;
63699;SDS011;49845;47.130;142.766;2023-04-25T14:20:48;24.08;;;7.80;;
63699;SDS011;49845;47.130;142.766;2023-04-25T14:23:19;27.00;;;7.55;;
63699;SDS011;49845;47.130;142.766;2023-04-25T14:25:50;21.33;;;7.70;;
63699;SDS011;49845;47.130;142.766;2023-04-25T14:28:20;31.90;;;7.97;;
63699;SDS011;49845;47.130;142.766;2023-04-25T14:30:53;30.00;;;8.05;;
63699;SDS011;49845;47.130;142.766;2023-04-25T14:33:27;27.65;;;8.82;;
63699;SDS011;49845;47.130;142.766;2023-04-25T14:36:00;21.95;;;8.07;;
63699;SDS011;49845;47.130;142.766;2023-04-25T14:38:31;29.80;;;9.15;;
63699;SDS011;49845;47.130;142.766;2023-04-25T14:41:04;24.23;;;8.10;;
63699;SDS011;49845;47.130;142.766;2023-04-25T14:43:35;24.20;;;7.13;;
63699;SDS011;49845;47.130;142.766;2023-04-25T14:46:07;26.90;;;7.82;;
63699;SDS011;49845;47.130;142.766;2023-04-25T14:48:40;23.60;;;7.25;;
63699;SDS011;49845;47.130;142.766;2023-04-25T14:51:13;25.25;;;7.78;;